createdAt,value
2022-11-27T00:01:24.953Z,7.63
2022-11-27T00:03:52.666Z,7.63
2022-11-27T00:06:23.547Z,7.65
2022-11-27T00:08:51.275Z,7.66
2022-11-27T00:11:20.928Z,7.66
2022-11-27T00:13:49.067Z,7.65
2022-11-27T00:16:17.592Z,7.66
2022-11-27T00:18:45.691Z,7.65
2022-11-27T00:21:16.248Z,7.67
2022-11-27T00:23:45.404Z,7.67
2022-11-27T00:26:13.190Z,7.68
2022-11-27T00:28:41.111Z,7.68
2022-11-27T00:31:13.528Z,7.68
2022-11-27T00:33:41.409Z,7.69
2022-11-27T00:36:10.269Z,7.71
2022-11-27T00:38:39.319Z,7.69
2022-11-27T00:41:09.448Z,7.71
2022-11-27T00:43:44.077Z,7.70
2022-11-27T00:46:13.094Z,7.70
2022-11-27T00:48:41.156Z,7.71
2022-11-27T00:51:12.469Z,7.73
2022-11-27T00:53:40.511Z,7.72
2022-11-27T00:56:09.681Z,7.73
2022-11-27T00:58:37.316Z,7.73
2022-11-27T01:01:08.248Z,7.70
2022-11-27T01:03:36.328Z,7.71
2022-11-27T01:06:04.534Z,7.68
2022-11-27T01:08:32.244Z,7.68
2022-11-27T01:11:00.592Z,7.68
2022-11-27T01:13:31.821Z,7.67
2022-11-27T01:16:00.467Z,7.69
2022-11-27T01:18:28.069Z,7.66
2022-11-27T01:20:56.185Z,7.66
2022-11-27T01:23:24.622Z,7.66
2022-11-27T01:25:53.315Z,7.65
2022-11-27T01:28:21.788Z,7.66
2022-11-27T01:30:51.738Z,7.63
2022-11-27T01:33:19.805Z,7.63
2022-11-27T01:35:55.169Z,7.60
2022-11-27T01:38:22.983Z,7.59
2022-11-27T01:40:50.769Z,7.59
2022-11-27T01:43:18.324Z,7.59
2022-11-27T01:45:46.306Z,7.56
2022-11-27T01:48:15.514Z,7.55
2022-11-27T01:50:43.340Z,7.54
2022-11-27T01:53:16.245Z,7.49
2022-11-27T01:55:47.797Z,7.50
2022-11-27T01:58:27.937Z,7.49
2022-11-27T02:00:55.636Z,7.48
2022-11-27T02:03:24.797Z,7.47
2022-11-27T02:05:52.487Z,7.44
2022-11-27T02:08:20.165Z,7.42
2022-11-27T02:10:53.004Z,7.41
2022-11-27T02:13:29.014Z,7.38
2022-11-27T02:16:08.069Z,7.37
2022-11-27T02:18:43.585Z,7.35
2022-11-27T02:21:20.673Z,7.33
2022-11-27T02:24:14.220Z,7.32
2022-11-27T02:27:06.125Z,7.32
2022-11-27T02:29:37.653Z,7.31
2022-11-27T02:32:11.331Z,7.29
2022-11-27T02:34:46.922Z,7.29
2022-11-27T02:37:21.488Z,7.30
2022-11-27T02:39:56.511Z,7.28
2022-11-27T02:42:25.314Z,7.27
2022-11-27T02:45:01.536Z,7.24
2022-11-27T02:47:30.129Z,7.24
2022-11-27T02:49:58.841Z,7.22
2022-11-27T02:52:28.479Z,7.17
2022-11-27T02:54:59.447Z,7.18
2022-11-27T02:57:29.289Z,7.17
2022-11-27T02:59:59.129Z,7.14
2022-11-27T03:02:33.866Z,7.13
2022-11-27T03:05:03.705Z,7.13
2022-11-27T03:07:38.395Z,7.09
2022-11-27T03:10:10.896Z,7.07
2022-11-27T03:12:38.471Z,7.06
2022-11-27T03:15:08.634Z,7.05
2022-11-27T03:17:51.541Z,7.04
2022-11-27T03:20:24.797Z,7.03
2022-11-27T03:22:53.919Z,7.01
2022-11-27T03:25:21.732Z,6.96
2022-11-27T03:27:55.580Z,6.96
2022-11-27T03:30:24.628Z,6.93
2022-11-27T03:32:52.509Z,6.90
2022-11-27T03:35:24.126Z,6.84
2022-11-27T03:37:52.632Z,6.78
2022-11-27T03:40:21.413Z,6.76
2022-11-27T03:43:00.090Z,6.72
2022-11-27T03:45:36.511Z,6.69
2022-11-27T03:48:19.652Z,6.63
2022-11-27T03:51:00.744Z,6.57
2022-11-27T03:53:35.929Z,6.54
2022-11-27T03:56:11.361Z,6.49
2022-11-27T03:58:42.098Z,6.44
2022-11-27T04:01:14.305Z,6.40
2022-11-27T04:03:41.904Z,6.34
2022-11-27T04:06:09.527Z,6.30
2022-11-27T04:08:37.073Z,6.25
2022-11-27T04:11:04.840Z,6.22
2022-11-27T04:13:32.424Z,6.17
2022-11-27T04:16:01.612Z,6.11
2022-11-27T04:18:30.625Z,6.06
2022-11-27T04:20:58.216Z,5.99
2022-11-27T04:23:25.944Z,5.94
2022-11-27T04:25:53.505Z,5.88
2022-11-27T04:28:21.228Z,5.81
2022-11-27T04:30:53.743Z,5.76
2022-11-27T04:33:21.716Z,5.73
2022-11-27T04:35:51.269Z,5.69
2022-11-27T04:38:19.143Z,5.65
2022-11-27T04:40:46.785Z,5.61
2022-11-27T04:43:14.781Z,5.57
2022-11-27T04:45:43.786Z,5.52
2022-11-27T04:48:11.373Z,5.49
2022-11-27T04:50:39.235Z,5.45
2022-11-27T04:53:08.145Z,5.43
2022-11-27T04:55:35.938Z,5.39
2022-11-27T04:58:03.518Z,5.34
2022-11-27T05:00:31.159Z,5.29
2022-11-27T05:02:58.758Z,5.27
2022-11-27T05:05:26.364Z,5.24
2022-11-27T05:07:53.998Z,5.20
2022-11-27T05:10:22.985Z,5.17
2022-11-27T05:12:50.911Z,5.15
2022-11-27T05:15:18.541Z,5.13
2022-11-27T05:17:46.108Z,5.09
2022-11-27T05:20:13.803Z,5.08
2022-11-27T05:22:41.369Z,5.06
2022-11-27T05:25:09.661Z,5.04
2022-11-27T05:27:38.591Z,5.01
2022-11-27T05:30:07.715Z,4.98
2022-11-27T05:32:35.286Z,4.94
2022-11-27T05:35:02.917Z,4.89
2022-11-27T05:37:30.478Z,4.88
2022-11-27T05:39:58.028Z,4.84
2022-11-27T05:42:25.616Z,4.82
2022-11-27T05:44:58.231Z,4.80
2022-11-27T05:47:26.262Z,4.75
2022-11-27T05:49:54.033Z,4.71
2022-11-27T05:52:21.721Z,4.69
2022-11-27T05:54:49.285Z,4.67
2022-11-27T05:57:16.830Z,4.65
2022-11-27T05:59:44.404Z,4.63
2022-11-27T06:02:19.995Z,4.61
2022-11-27T06:04:49.241Z,4.56
2022-11-27T06:07:16.964Z,4.53
2022-11-27T06:09:44.514Z,4.51
2022-11-27T06:12:12.085Z,4.48
2022-11-27T06:14:39.830Z,4.46
2022-11-27T06:17:07.567Z,4.44
2022-11-27T06:19:36.503Z,4.40
2022-11-27T06:22:04.121Z,4.37
2022-11-27T06:24:31.681Z,4.35
2022-11-27T06:26:59.245Z,4.32
2022-11-27T06:29:26.845Z,4.28
2022-11-27T06:31:54.452Z,4.26
2022-11-27T06:34:22.149Z,4.23
2022-11-27T06:36:51.420Z,4.21
2022-11-27T06:39:19.000Z,4.19
2022-11-27T06:41:46.592Z,4.17
2022-11-27T06:44:14.394Z,4.16
2022-11-27T06:46:41.928Z,4.15
2022-11-27T06:49:10.280Z,4.13
2022-11-27T06:51:37.899Z,4.13
2022-11-27T06:54:06.972Z,4.12
2022-11-27T06:56:34.886Z,4.13
2022-11-27T06:59:02.713Z,4.11
2022-11-27T07:01:32.224Z,4.10
2022-11-27T07:04:00.313Z,4.10
2022-11-27T07:06:28.456Z,4.09
2022-11-27T07:08:57.111Z,4.08
2022-11-27T07:11:28.281Z,4.07
2022-11-27T07:13:57.715Z,4.05
2022-11-27T07:16:26.371Z,4.03
2022-11-27T07:18:56.008Z,4.02
2022-11-27T07:21:23.760Z,4.04
2022-11-27T07:23:51.760Z,4.04
2022-11-27T07:26:21.363Z,4.04
2022-11-27T07:28:50.756Z,4.05
2022-11-27T07:31:21.677Z,4.08
2022-11-27T07:33:49.848Z,4.09
2022-11-27T07:36:18.977Z,4.11
2022-11-27T07:38:46.708Z,4.12
2022-11-27T07:41:15.530Z,4.14
2022-11-27T07:43:44.195Z,4.14
2022-11-27T07:46:15.610Z,4.15
2022-11-27T07:48:43.396Z,4.18
2022-11-27T07:51:12.615Z,4.21
2022-11-27T07:53:41.626Z,4.22
2022-11-27T07:56:11.243Z,4.27
2022-11-27T07:58:38.796Z,4.28
2022-11-27T08:01:08.571Z,4.31
2022-11-27T08:03:38.461Z,4.35
2022-11-27T08:06:06.807Z,4.40
2022-11-27T08:08:34.703Z,4.42
2022-11-27T08:11:02.252Z,4.47
2022-11-27T08:13:29.849Z,4.55
2022-11-27T08:16:00.217Z,4.65
2022-11-27T08:18:27.977Z,4.74
2022-11-27T08:20:56.893Z,4.83
2022-11-27T08:23:24.480Z,4.91
2022-11-27T08:25:52.070Z,5.03
2022-11-27T08:28:19.632Z,5.11
2022-11-27T08:30:47.286Z,5.14
2022-11-27T08:33:14.858Z,5.18
2022-11-27T08:35:49.120Z,5.18
2022-11-27T08:38:18.769Z,5.27
2022-11-27T08:40:46.360Z,5.31
2022-11-27T08:43:13.934Z,5.36
2022-11-27T08:45:41.541Z,5.35
2022-11-27T08:48:09.088Z,5.37
2022-11-27T08:50:38.225Z,5.34
2022-11-27T08:53:05.760Z,5.33
2022-11-27T08:55:34.710Z,5.30
2022-11-27T08:58:03.828Z,5.31
2022-11-27T09:00:31.778Z,5.31
2022-11-27T09:03:00.530Z,5.33
2022-11-27T09:05:28.329Z,5.33
2022-11-27T09:07:56.437Z,5.41
2022-11-27T09:10:24.240Z,5.47
2022-11-27T09:12:53.235Z,5.54
2022-11-27T09:15:20.776Z,5.55
2022-11-27T09:17:48.353Z,5.51
2022-11-27T09:20:16.069Z,5.55
2022-11-27T09:22:43.787Z,5.67
2022-11-27T09:25:11.359Z,5.72
2022-11-27T09:27:39.261Z,5.81
2022-11-27T09:30:10.014Z,5.86
2022-11-27T09:32:37.988Z,6.03
2022-11-27T09:35:06.303Z,6.07
2022-11-27T09:37:34.060Z,6.08
2022-11-27T09:40:01.771Z,5.98
2022-11-27T09:42:39.005Z,5.95
2022-11-27T09:45:14.344Z,5.95
2022-11-27T09:47:45.726Z,5.97
2022-11-27T09:50:18.407Z,5.92
2022-11-27T09:52:50.724Z,6.00
2022-11-27T09:55:24.412Z,6.01
2022-11-27T09:58:00.420Z,6.04
2022-11-27T10:00:29.790Z,6.04
2022-11-27T10:02:57.701Z,6.10
2022-11-27T10:05:27.799Z,6.12
2022-11-27T10:08:11.525Z,6.13
2022-11-27T10:10:44.706Z,6.20
2022-11-27T10:13:24.604Z,6.25
2022-11-27T10:15:57.752Z,6.29
2022-11-27T10:18:32.678Z,6.28
2022-11-27T10:21:08.489Z,6.20
2022-11-27T10:23:46.206Z,6.21
2022-11-27T10:26:19.541Z,6.21
2022-11-27T10:28:54.300Z,6.22
2022-11-27T10:31:34.037Z,6.28
2022-11-27T10:34:05.276Z,6.27
2022-11-27T10:36:37.286Z,6.33
2022-11-27T10:39:08.292Z,6.40
2022-11-27T10:41:49.295Z,6.40
2022-11-27T10:44:28.142Z,6.42
2022-11-27T10:47:02.670Z,6.43
2022-11-27T10:49:30.281Z,6.47
2022-11-27T10:51:57.924Z,6.49
2022-11-27T10:54:28.980Z,6.47
2022-11-27T10:57:15.707Z,6.42
2022-11-27T10:59:47.673Z,6.43
2022-11-27T11:02:31.280Z,6.31
2022-11-27T11:05:30.037Z,6.24
2022-11-27T11:07:56.817Z,6.22
2022-11-27T12:05:06.936Z,6.18
2022-11-27T12:07:51.844Z,6.20
2022-11-27T12:10:25.843Z,6.24
2022-11-27T12:13:03.788Z,6.27
2022-11-27T12:15:36.012Z,6.34
2022-11-27T12:18:11.033Z,6.31
2022-11-27T12:20:54.813Z,6.34
2022-11-27T12:23:51.120Z,6.41
2022-11-27T12:26:29.921Z,6.47
2022-11-27T12:29:18.871Z,6.48
2022-11-27T12:32:05.363Z,6.51
2022-11-27T12:34:46.041Z,6.52
2022-11-27T12:37:28.166Z,6.58
2022-11-27T12:40:09.784Z,6.58
2022-11-27T12:42:47.553Z,6.50
2022-11-27T12:45:21.613Z,6.45
2022-11-27T12:47:52.693Z,6.45
2022-11-27T12:50:27.320Z,6.46
2022-11-27T12:53:01.204Z,6.45
2022-11-27T12:55:32.249Z,6.44
2022-11-27T12:58:04.212Z,6.46
2022-11-27T13:00:36.583Z,6.45
2022-11-27T13:03:09.389Z,6.44
2022-11-27T13:05:44.431Z,6.41
2022-11-27T13:08:16.528Z,6.38
2022-11-27T13:10:49.642Z,6.32
2022-11-27T13:13:23.056Z,6.23
2022-11-27T13:15:57.123Z,6.22
2022-11-27T13:18:33.765Z,6.18
2022-11-27T13:21:04.971Z,6.15
2022-11-27T13:23:34.543Z,6.13
2022-11-27T13:26:07.222Z,6.10
2022-11-27T13:28:41.478Z,6.08
2022-11-27T13:31:18.185Z,6.03
2022-11-27T13:33:47.085Z,6.04
2022-11-27T13:36:21.709Z,6.03
2022-11-27T13:38:57.517Z,5.99
2022-11-27T13:41:31.390Z,5.97
2022-11-27T13:43:59.415Z,5.97
2022-11-27T13:46:29.304Z,5.94
2022-11-27T13:49:02.580Z,5.92
2022-11-27T13:51:32.648Z,5.93
2022-11-27T13:54:12.829Z,5.94
2022-11-27T13:56:41.249Z,5.90
2022-11-27T13:59:17.625Z,5.88
2022-11-27T14:01:56.452Z,5.86
2022-11-27T14:04:24.177Z,5.82
2022-11-27T14:06:58.845Z,5.81
2022-11-27T14:09:43.605Z,5.79
2022-11-27T14:12:17.369Z,5.77
2022-11-27T14:14:46.340Z,5.76
2022-11-27T14:17:27.674Z,5.74
2022-11-27T14:20:19.655Z,5.74
2022-11-27T14:23:10.411Z,5.73
2022-11-27T14:25:39.104Z,5.72
2022-11-27T14:28:15.269Z,5.71
2022-11-27T14:30:47.473Z,5.70
2022-11-27T14:33:20.660Z,5.71
2022-11-27T14:35:52.393Z,5.71
2022-11-27T14:38:20.618Z,5.69
2022-11-27T14:40:53.110Z,5.68
2022-11-27T14:43:25.823Z,5.66
2022-11-27T14:45:55.181Z,5.65
2022-11-27T14:48:25.257Z,5.65
2022-11-27T14:50:55.089Z,5.64
2022-11-27T14:53:26.119Z,5.61
2022-11-27T14:55:58.440Z,5.61
2022-11-27T14:58:28.786Z,5.59
2022-11-27T15:00:59.875Z,5.59
2022-11-27T15:03:28.019Z,5.57
2022-11-27T15:05:59.139Z,5.52
2022-11-27T15:08:27.455Z,5.54
2022-11-27T15:10:58.574Z,5.52
2022-11-27T15:13:28.355Z,5.53
2022-11-27T15:16:01.249Z,5.54
2022-11-27T15:18:31.336Z,5.54
2022-11-27T15:21:00.601Z,5.55
2022-11-27T15:23:30.275Z,5.52
2022-11-27T15:26:16.067Z,5.53
2022-11-27T15:28:52.381Z,5.49
2022-11-27T15:31:27.191Z,5.51
2022-11-27T15:33:59.973Z,5.51
2022-11-27T15:36:28.247Z,5.49
2022-11-27T15:39:11.909Z,5.50
2022-11-27T15:41:51.273Z,5.51
2022-11-27T15:44:18.912Z,5.49
2022-11-27T15:46:46.929Z,5.49
2022-11-27T15:49:15.644Z,5.51
2022-11-27T15:51:44.135Z,5.51
2022-11-27T15:54:11.700Z,5.53
2022-11-27T15:56:39.280Z,5.51
2022-11-27T15:59:08.219Z,5.50
2022-11-27T16:01:35.817Z,5.50
2022-11-27T16:04:03.691Z,5.51
2022-11-27T16:06:31.224Z,5.50
2022-11-27T16:09:00.468Z,5.52
2022-11-27T16:11:30.442Z,5.52
2022-11-27T16:13:58.116Z,5.52
2022-11-27T16:16:27.832Z,5.52
2022-11-27T16:18:59.544Z,5.54
2022-11-27T16:21:29.901Z,5.55
2022-11-27T16:23:58.918Z,5.56
2022-11-27T16:26:27.052Z,5.58
2022-11-27T16:28:54.744Z,5.58
2022-11-27T16:31:23.598Z,5.59
2022-11-27T16:33:53.180Z,5.61
2022-11-27T16:36:21.901Z,5.59
2022-11-27T16:38:50.290Z,5.60
2022-11-27T16:41:19.661Z,5.62
2022-11-27T16:43:49.376Z,5.65
2022-11-27T16:46:19.870Z,5.66
2022-11-27T16:48:49.288Z,5.65
2022-11-27T16:51:20.122Z,5.66
2022-11-27T16:53:49.564Z,5.68
2022-11-27T16:56:18.996Z,5.68
2022-11-27T16:58:47.693Z,5.69
2022-11-27T17:01:17.625Z,5.68
2022-11-27T17:03:46.853Z,5.70
2022-11-27T17:06:17.471Z,5.70
2022-11-27T17:08:47.376Z,5.72
2022-11-27T17:11:17.345Z,5.70
2022-11-27T17:13:45.608Z,5.72
2022-11-27T17:16:13.760Z,5.72
2022-11-27T17:18:42.996Z,5.70
2022-11-27T17:21:12.452Z,5.72
2022-11-27T17:23:42.989Z,5.72
2022-11-27T17:26:14.188Z,5.72
2022-11-27T17:28:41.833Z,5.72
2022-11-27T17:31:10.457Z,5.73
2022-11-27T17:33:38.050Z,5.71
2022-11-27T17:36:06.465Z,5.71
2022-11-27T17:38:34.037Z,5.70
2022-11-27T17:41:02.183Z,5.71
2022-11-27T17:43:31.264Z,5.71
2022-11-27T17:45:59.311Z,5.71
2022-11-27T17:48:27.508Z,5.71
2022-11-27T17:50:55.529Z,5.71
2022-11-27T17:53:23.108Z,5.70
2022-11-27T17:55:50.648Z,5.67
2022-11-27T17:58:18.404Z,5.70
2022-11-27T18:00:47.704Z,5.67
2022-11-27T18:03:15.360Z,5.67
2022-11-27T18:05:43.002Z,5.66
2022-11-27T18:08:10.646Z,5.69
2022-11-27T18:10:38.212Z,5.68
2022-11-27T18:13:06.151Z,5.69
2022-11-27T18:15:35.012Z,5.68
2022-11-27T18:18:04.108Z,5.70
2022-11-27T18:20:31.691Z,5.69
2022-11-27T18:22:59.276Z,5.69
2022-11-27T18:25:26.878Z,5.70
2022-11-27T18:27:54.493Z,5.71
2022-11-27T18:30:22.209Z,5.73
2022-11-27T18:32:49.996Z,5.73
2022-11-27T18:35:19.018Z,5.74
2022-11-27T18:37:46.569Z,5.72
2022-11-27T18:40:14.628Z,5.71
2022-11-27T18:42:42.217Z,5.71
2022-11-27T18:45:31.236Z,5.69
2022-11-27T18:47:57.985Z,5.69
2022-11-27T18:50:29.879Z,5.69
2022-11-27T18:52:57.673Z,5.67
2022-11-27T18:55:25.197Z,5.68
2022-11-27T18:57:52.787Z,5.67
2022-11-27T19:00:21.235Z,5.65
2022-11-27T19:02:48.873Z,5.65
2022-11-27T19:05:16.609Z,5.65
2022-11-27T19:07:45.598Z,5.67
2022-11-27T19:10:13.257Z,5.67
2022-11-27T19:12:40.894Z,5.65
2022-11-27T19:15:09.761Z,5.59
2022-11-27T19:17:37.415Z,5.63
2022-11-27T19:20:08.318Z,5.57
2022-11-27T19:22:38.190Z,5.60
2022-11-27T19:25:08.473Z,5.62
2022-11-27T19:27:36.066Z,5.60
2022-11-27T19:30:05.140Z,5.59
2022-11-27T19:32:32.712Z,5.59
2022-11-27T19:35:05.691Z,5.60
2022-11-27T19:37:36.851Z,5.59
2022-11-27T19:40:06.378Z,5.60
2022-11-27T19:42:35.477Z,5.58
2022-11-27T19:45:03.210Z,5.57
2022-11-27T19:47:31.036Z,5.55
2022-11-27T19:49:58.604Z,5.56
2022-11-27T19:52:26.236Z,5.56
2022-11-27T19:54:53.788Z,5.55
2022-11-27T19:57:21.365Z,5.57
2022-11-27T19:59:50.265Z,5.57
2022-11-27T20:02:17.846Z,5.56
2022-11-27T20:04:45.574Z,5.56
2022-11-27T20:07:13.196Z,5.55
2022-11-27T20:09:40.806Z,5.54
2022-11-27T20:12:08.449Z,5.54
2022-11-27T20:14:37.720Z,5.52
2022-11-27T20:17:06.949Z,5.52
2022-11-27T20:19:34.552Z,5.51
2022-11-27T20:22:02.111Z,5.52
2022-11-27T20:24:29.677Z,5.54
2022-11-27T20:26:57.389Z,5.48
2022-11-27T20:29:24.932Z,5.49
2022-11-27T20:31:52.761Z,5.50
2022-11-27T20:34:22.937Z,5.49
2022-11-27T20:36:51.014Z,5.48
2022-11-27T20:39:21.562Z,5.48
2022-11-27T20:41:51.241Z,5.48
2022-11-27T20:44:19.167Z,5.49
2022-11-27T20:46:46.768Z,5.49
2022-11-27T20:49:14.614Z,5.50
2022-11-27T20:51:43.780Z,5.50
2022-11-27T20:54:12.189Z,5.49
2022-11-27T20:56:40.823Z,5.51
2022-11-27T20:59:08.809Z,5.50
2022-11-27T21:01:37.748Z,5.48
2022-11-27T21:04:09.333Z,5.52
2022-11-27T21:06:43.444Z,5.53
2022-11-27T21:09:13.758Z,5.51
2022-11-27T21:11:42.154Z,5.52
2022-11-27T21:14:12.116Z,5.55
2022-11-27T21:16:42.911Z,5.56
2022-11-27T21:19:15.400Z,5.58
2022-11-27T21:21:43.021Z,5.59
2022-11-27T21:24:11.427Z,5.57
2022-11-27T21:26:41.625Z,5.60
2022-11-27T21:29:10.121Z,5.62
2022-11-27T21:31:38.865Z,5.62
2022-11-27T21:34:10.331Z,5.61
2022-11-27T21:36:38.758Z,5.62
2022-11-27T21:39:08.293Z,5.62
2022-11-27T21:41:36.754Z,5.61
2022-11-27T21:44:06.675Z,5.61
2022-11-27T21:46:34.897Z,5.60
2022-11-27T21:49:03.106Z,5.56
2022-11-27T21:51:30.852Z,5.56
2022-11-27T21:53:59.764Z,5.58
2022-11-27T21:56:29.879Z,5.57
2022-11-27T21:58:57.699Z,5.56
2022-11-27T22:01:27.418Z,5.57
2022-11-27T22:03:56.439Z,5.57
2022-11-27T22:06:26.308Z,5.58
2022-11-27T22:08:57.109Z,5.56
2022-11-27T22:11:28.668Z,5.57
2022-11-27T22:13:57.228Z,5.56
2022-11-27T22:16:28.976Z,5.52
2022-11-27T22:18:58.048Z,5.53
2022-11-27T22:21:27.243Z,5.52
2022-11-27T22:23:55.160Z,5.53
2022-11-27T22:26:24.672Z,5.51
2022-11-27T22:28:52.576Z,5.46
2022-11-27T22:31:22.781Z,5.45
2022-11-27T22:33:51.902Z,5.45
2022-11-27T22:36:21.964Z,5.44
2022-11-27T22:38:52.004Z,5.45
2022-11-27T22:41:21.108Z,5.46
2022-11-27T22:43:48.965Z,5.44
2022-11-27T22:46:19.135Z,5.45
2022-11-27T22:48:47.559Z,5.46
2022-11-27T22:51:16.450Z,5.44
2022-11-27T22:53:43.970Z,5.42
2022-11-27T22:56:12.961Z,5.44
2022-11-27T22:58:41.823Z,5.43
2022-11-27T23:01:10.984Z,5.45
2022-11-27T23:03:38.806Z,5.49
2022-11-27T23:06:11.467Z,5.47
2022-11-27T23:08:40.863Z,5.47
2022-11-27T23:11:10.144Z,5.46
2022-11-27T23:13:37.799Z,5.46
2022-11-27T23:16:07.424Z,5.46
2022-11-27T23:18:35.565Z,5.47
2022-11-27T23:21:06.534Z,5.44
2022-11-27T23:23:34.144Z,5.47
2022-11-27T23:26:05.064Z,5.49
2022-11-27T23:28:32.825Z,5.48
2022-11-27T23:31:28.015Z,5.46
2022-11-27T23:33:52.660Z,5.48
2022-11-27T23:36:20.629Z,5.48
2022-11-27T23:38:48.894Z,5.47
2022-11-27T23:41:20.076Z,5.45
2022-11-27T23:43:48.199Z,5.47
2022-11-27T23:46:17.865Z,5.46
2022-11-27T23:48:45.866Z,5.48
2022-11-27T23:51:15.528Z,5.49
2022-11-27T23:53:43.473Z,5.49
2022-11-27T23:56:13.265Z,5.48
2022-11-27T23:58:46.953Z,5.48
